createdAt,value
2023-03-26T00:01:17.963Z,1.88
2023-03-26T00:03:47.012Z,1.43
2023-03-26T00:06:17.084Z,1.60
2023-03-26T00:08:45.793Z,1.35
2023-03-26T00:11:15.571Z,1.23
2023-03-26T00:13:46.806Z,1.77
2023-03-26T00:16:18.686Z,1.50
2023-03-26T00:18:46.626Z,1.48
2023-03-26T00:21:16.478Z,1.20
2023-03-26T00:23:45.415Z,1.40
2023-03-26T00:26:12.894Z,1.63
2023-03-26T00:28:42.476Z,1.60
2023-03-26T00:31:12.973Z,1.58
2023-03-26T00:33:42.704Z,1.38
2023-03-26T00:36:14.769Z,1.45
2023-03-26T00:38:43.173Z,1.55
2023-03-26T00:41:22.929Z,1.40
2023-03-26T00:43:53.588Z,1.38
2023-03-26T00:46:21.130Z,1.20
2023-03-26T00:48:50.669Z,1.30
2023-03-26T00:51:20.652Z,1.25
2023-03-26T00:53:49.731Z,1.20
2023-03-26T00:56:18.031Z,1.20
2023-03-26T00:58:47.551Z,1.30
2023-03-26T01:01:18.461Z,1.17
2023-03-26T01:03:57.120Z,1.10
2023-03-26T01:06:32.912Z,1.10
2023-03-26T01:09:04.389Z,1.50
2023-03-26T01:11:34.679Z,1.42
2023-03-26T01:14:07.330Z,1.20
2023-03-26T01:16:39.970Z,1.13
2023-03-26T01:19:13.016Z,1.00
2023-03-26T01:21:42.291Z,1.30
2023-03-26T01:24:11.073Z,1.00
2023-03-26T01:27:09.714Z,1.30
2023-03-26T01:29:43.323Z,0.90
2023-03-26T01:32:23.045Z,1.20
2023-03-26T01:35:06.317Z,1.30
2023-03-26T01:37:46.770Z,1.30
2023-03-26T01:40:24.204Z,1.20
2023-03-26T01:42:58.610Z,1.23
2023-03-26T01:45:30.779Z,1.40
2023-03-26T01:47:58.477Z,1.40
2023-03-26T01:50:26.344Z,0.95
2023-03-26T01:52:53.738Z,0.90
2023-03-26T01:55:26.298Z,0.90
2023-03-26T01:58:05.392Z,0.70
2023-03-26T02:00:36.445Z,0.65
2023-03-26T02:03:19.514Z,0.55
2023-03-26T02:05:53.524Z,0.70
2023-03-26T02:08:24.759Z,0.80
2023-03-26T02:10:57.538Z,0.50
2023-03-26T02:13:26.355Z,0.77
2023-03-26T02:15:58.905Z,0.70
2023-03-26T02:18:36.563Z,0.68
2023-03-26T02:21:06.270Z,0.80
2023-03-26T02:23:35.790Z,0.70
2023-03-26T02:26:08.245Z,0.80
2023-03-26T02:28:39.089Z,0.80
2023-03-26T02:31:09.706Z,0.75
2023-03-26T02:33:37.739Z,0.82
2023-03-26T02:36:06.286Z,1.07
2023-03-26T02:38:35.141Z,0.88
2023-03-26T02:41:06.363Z,1.25
2023-03-26T02:43:51.055Z,0.90
2023-03-26T02:46:21.735Z,0.98
2023-03-26T02:49:00.114Z,0.87
2023-03-26T02:51:27.645Z,1.13
2023-03-26T02:54:21.303Z,1.15
2023-03-26T02:57:16.359Z,0.88
2023-03-26T02:59:46.303Z,1.10
2023-03-26T03:02:32.106Z,0.90
2023-03-26T03:05:12.124Z,1.25
2023-03-26T03:07:40.174Z,1.33
2023-03-26T03:10:10.011Z,1.13
2023-03-26T03:13:15.029Z,1.13
2023-03-26T03:15:42.750Z,1.40
2023-03-26T03:18:10.240Z,1.27
2023-03-26T03:20:37.999Z,1.10
2023-03-26T03:23:05.412Z,1.45
2023-03-26T03:25:33.791Z,1.65
2023-03-26T03:28:01.377Z,1.50
2023-03-26T03:30:30.294Z,1.40
2023-03-26T03:33:10.574Z,1.30
2023-03-26T03:35:39.954Z,1.42
2023-03-26T03:38:07.390Z,1.48
2023-03-26T03:40:45.372Z,1.53
2023-03-26T03:43:13.896Z,1.48
2023-03-26T03:46:03.181Z,1.45
2023-03-26T03:48:39.055Z,1.40
2023-03-26T03:51:08.153Z,1.50
2023-03-26T03:53:47.403Z,1.67
2023-03-26T03:56:19.543Z,1.02
2023-03-26T03:59:05.970Z,1.40
2023-03-26T04:01:37.241Z,1.40
2023-03-26T04:04:09.485Z,1.50
2023-03-26T04:06:52.154Z,1.53
2023-03-26T04:09:19.900Z,1.50
2023-03-26T04:11:50.741Z,1.35
2023-03-26T04:14:35.765Z,1.27
2023-03-26T04:17:09.357Z,1.40
2023-03-26T04:19:38.436Z,1.53
2023-03-26T04:22:09.444Z,1.30
2023-03-26T04:24:43.770Z,1.13
2023-03-26T04:27:32.090Z,1.38
2023-03-26T04:30:20.921Z,1.52
2023-03-26T04:33:06.305Z,1.40
2023-03-26T04:35:37.858Z,1.40
2023-03-26T04:38:10.020Z,1.30
2023-03-26T04:40:42.261Z,1.30
2023-03-26T04:43:35.518Z,1.23
2023-03-26T04:46:18.503Z,1.30
2023-03-26T04:48:57.550Z,1.35
2023-03-26T04:51:28.599Z,1.10
2023-03-26T04:54:00.971Z,1.23
2023-03-26T04:56:46.500Z,1.58
2023-03-26T04:59:30.307Z,1.20
2023-03-26T05:02:00.120Z,0.80
2023-03-26T05:04:34.114Z,1.10
2023-03-26T05:07:03.007Z,1.08
2023-03-26T05:09:38.208Z,1.20
2023-03-26T05:12:12.659Z,1.10
2023-03-26T05:14:51.742Z,1.00
2023-03-26T05:17:30.994Z,1.13
2023-03-26T05:20:00.463Z,1.40
2023-03-26T05:22:28.050Z,1.38
2023-03-26T05:25:11.008Z,1.20
2023-03-26T05:27:39.320Z,1.20
2023-03-26T05:30:08.338Z,1.33
2023-03-26T05:32:43.494Z,1.50
2023-03-26T05:35:18.818Z,1.35
2023-03-26T05:37:48.041Z,1.10
2023-03-26T05:40:17.200Z,1.40
2023-03-26T05:42:51.881Z,1.38
2023-03-26T05:45:41.607Z,1.20
2023-03-26T05:48:17.739Z,1.55
2023-03-26T05:50:48.112Z,1.17
2023-03-26T05:53:16.244Z,1.33
2023-03-26T05:56:06.944Z,1.60
2023-03-26T05:58:52.766Z,1.20
2023-03-26T06:01:38.544Z,1.08
2023-03-26T06:04:26.008Z,1.20
2023-03-26T06:07:18.174Z,1.17
2023-03-26T06:09:53.927Z,1.40
2023-03-26T06:12:21.986Z,1.23
2023-03-26T06:14:49.779Z,1.55
2023-03-26T06:17:20.514Z,1.20
2023-03-26T06:20:11.314Z,1.42
2023-03-26T06:22:43.138Z,1.58
2023-03-26T06:25:33.372Z,1.52
2023-03-26T06:28:16.685Z,1.55
2023-03-26T06:30:54.066Z,1.27
2023-03-26T06:33:35.827Z,1.50
2023-03-26T06:36:04.080Z,1.20
2023-03-26T06:38:32.814Z,1.60
2023-03-26T06:41:03.458Z,1.48
2023-03-26T06:43:49.512Z,1.30
2023-03-26T06:46:42.644Z,1.52
2023-03-26T06:49:45.478Z,1.48
2023-03-26T06:52:33.093Z,1.30
2023-03-26T06:55:23.484Z,1.33
2023-03-26T06:58:11.588Z,1.87
2023-03-26T07:01:04.802Z,1.90
2023-03-26T07:03:50.890Z,1.80
2023-03-26T07:06:36.863Z,1.33
2023-03-26T07:09:22.713Z,1.50
2023-03-26T07:12:03.670Z,1.47
2023-03-26T07:14:53.770Z,1.60
2023-03-26T07:17:44.123Z,1.15
2023-03-26T07:20:20.437Z,1.33
2023-03-26T07:22:48.776Z,1.30
2023-03-26T07:25:29.500Z,1.47
2023-03-26T07:28:25.652Z,1.20
2023-03-26T07:31:27.243Z,1.13
2023-03-26T07:34:29.763Z,1.15
2023-03-26T07:37:21.747Z,1.20
2023-03-26T07:40:18.551Z,1.13
2023-03-26T07:43:25.439Z,1.23
2023-03-26T07:45:57.504Z,1.10
2023-03-26T07:48:40.793Z,1.08
2023-03-26T07:51:13.422Z,1.08
2023-03-26T07:53:50.470Z,0.93
2023-03-26T07:56:40.550Z,0.88
2023-03-26T07:59:33.287Z,0.88
2023-03-26T08:02:46.614Z,0.98
2023-03-26T08:05:52.210Z,0.90
2023-03-26T08:08:48.986Z,1.10
2023-03-26T08:11:51.196Z,1.00
2023-03-26T08:14:33.715Z,1.10
2023-03-26T08:17:09.658Z,1.23
2023-03-26T08:19:57.986Z,1.08
2023-03-26T08:22:29.288Z,1.07
2023-03-26T08:25:22.462Z,1.48
2023-03-26T08:28:02.528Z,1.13
2023-03-26T08:30:31.579Z,0.90
2023-03-26T08:33:02.379Z,1.40
2023-03-26T08:35:29.904Z,1.40
2023-03-26T08:37:57.685Z,1.45
2023-03-26T08:40:54.895Z,1.45
2023-03-26T08:43:48.459Z,1.45
2023-03-26T08:46:56.662Z,1.50
2023-03-26T08:49:48.887Z,1.30
2023-03-26T08:52:51.329Z,1.35
2023-03-26T08:55:42.113Z,1.30
2023-03-26T08:58:41.204Z,1.35
2023-03-26T09:01:31.406Z,1.35
2023-03-26T09:04:42.125Z,1.47
2023-03-26T09:07:41.142Z,1.80
2023-03-26T09:10:31.599Z,1.45
2023-03-26T09:13:38.385Z,1.70
2023-03-26T09:16:42.055Z,1.67
2023-03-26T09:19:46.987Z,1.70
2023-03-26T09:22:48.478Z,1.38
2023-03-26T09:25:31.153Z,1.67
2023-03-26T09:28:24.068Z,1.65
2023-03-26T09:31:20.157Z,2.05
2023-03-26T09:34:00.346Z,1.70
2023-03-26T09:36:51.981Z,1.80
2023-03-26T09:39:37.796Z,2.03
2023-03-26T09:42:13.557Z,1.95
2023-03-26T09:45:10.898Z,2.00
2023-03-26T09:48:10.513Z,1.47
2023-03-26T09:51:10.750Z,1.50
2023-03-26T09:53:59.735Z,1.15
2023-03-26T09:56:41.327Z,1.42
2023-03-26T09:59:36.806Z,1.17
2023-03-26T10:02:18.846Z,1.10
2023-03-26T10:05:20.452Z,1.27
2023-03-26T10:08:16.357Z,1.30
2023-03-26T10:10:50.410Z,1.25
2023-03-26T10:13:30.595Z,1.50
2023-03-26T10:16:17.000Z,1.50
2023-03-26T10:18:59.663Z,1.58
2023-03-26T10:21:56.375Z,1.60
2023-03-26T10:24:39.710Z,1.67
2023-03-26T10:27:23.066Z,1.70
2023-03-26T10:30:25.827Z,1.50
2023-03-26T10:32:59.790Z,1.98
2023-03-26T10:35:43.979Z,2.30
2023-03-26T10:38:31.048Z,1.90
2023-03-26T10:41:06.608Z,1.77
2023-03-26T10:44:07.947Z,1.60
2023-03-26T10:47:11.862Z,1.77
2023-03-26T10:50:17.153Z,2.15
2023-03-26T10:53:03.521Z,1.98
2023-03-26T10:55:47.692Z,1.70
2023-03-26T10:58:21.766Z,1.70
2023-03-26T11:00:55.601Z,1.88
2023-03-26T11:03:51.172Z,2.08
2023-03-26T11:06:38.854Z,2.10
2023-03-26T11:09:26.225Z,2.40
2023-03-26T11:12:27.325Z,1.90
2023-03-26T11:15:08.763Z,2.40
2023-03-26T11:17:46.333Z,3.20
2023-03-26T11:20:19.402Z,3.28
2023-03-26T11:23:06.146Z,2.67
2023-03-26T11:25:48.103Z,2.77
2023-03-26T11:28:27.684Z,2.63
2023-03-26T11:31:01.887Z,2.58
2023-03-26T11:33:36.604Z,2.33
2023-03-26T11:36:08.897Z,2.10
2023-03-26T11:38:48.114Z,2.33
2023-03-26T11:41:33.476Z,2.35
2023-03-26T11:44:19.076Z,2.33
2023-03-26T11:46:58.930Z,1.85
2023-03-26T11:49:28.903Z,2.25
2023-03-26T11:52:02.661Z,2.17
2023-03-26T11:54:39.519Z,1.98
2023-03-26T11:57:12.908Z,2.25
2023-03-26T11:59:55.876Z,2.20
2023-03-26T12:02:29.443Z,2.15
2023-03-26T12:05:18.268Z,2.50
2023-03-26T12:08:02.223Z,1.98
2023-03-26T12:10:34.983Z,2.20
2023-03-26T12:13:26.503Z,2.30
2023-03-26T12:16:05.953Z,2.40
2023-03-26T12:18:34.100Z,2.20
2023-03-26T12:21:08.196Z,2.15
2023-03-26T12:23:56.848Z,2.00
2023-03-26T12:26:40.377Z,2.10
2023-03-26T12:29:12.288Z,1.95
2023-03-26T12:31:54.840Z,2.30
2023-03-26T12:34:24.326Z,1.92
2023-03-26T12:36:54.478Z,1.92
2023-03-26T12:40:10.557Z,1.70
2023-03-26T12:44:50.407Z,1.70
2023-03-26T12:45:30.542Z,1.80
2023-03-26T12:48:04.206Z,2.00
2023-03-26T12:50:50.204Z,1.92
2023-03-26T12:53:53.841Z,1.80
2023-03-26T12:56:38.602Z,1.65
2023-03-26T12:59:29.814Z,1.53
2023-03-26T13:02:07.072Z,1.40
2023-03-26T13:05:05.749Z,2.10
2023-03-26T13:08:06.360Z,4.45
2023-03-26T13:10:57.040Z,3.13
2023-03-26T13:13:56.339Z,4.97
2023-03-26T13:16:34.958Z,3.30
2023-03-26T13:19:07.868Z,2.33
2023-03-26T13:22:08.075Z,2.20
2023-03-26T13:24:59.902Z,2.40
2023-03-26T13:27:48.331Z,2.00
2023-03-26T13:30:26.996Z,1.30
2023-03-26T13:33:07.887Z,1.27
2023-03-26T13:38:59.200Z,1.27
2023-03-26T13:41:37.518Z,1.30
2023-03-26T13:44:14.339Z,1.10
2023-03-26T13:46:48.747Z,1.00
2023-03-26T13:49:29.526Z,1.33
2023-03-26T13:52:03.557Z,1.27
2023-03-26T13:54:34.596Z,1.30
2023-03-26T13:57:09.493Z,1.30
2023-03-26T13:59:44.126Z,1.45
2023-03-26T14:02:39.401Z,1.40
2023-03-26T14:05:22.013Z,1.20
2023-03-26T14:07:53.299Z,1.20
2023-03-26T14:10:26.471Z,1.00
2023-03-26T14:12:58.653Z,1.10
2023-03-26T14:15:29.826Z,1.33
2023-03-26T14:18:06.549Z,1.20
2023-03-26T14:21:04.612Z,1.30
2023-03-26T14:23:51.201Z,1.08
2023-03-26T14:26:37.148Z,1.63
2023-03-26T14:29:28.064Z,1.30
2023-03-26T14:32:24.455Z,1.45
2023-03-26T14:35:10.929Z,1.20
2023-03-26T14:38:02.726Z,1.38
2023-03-26T14:40:40.101Z,1.42
2023-03-26T14:43:26.536Z,1.33
2023-03-26T14:46:07.401Z,1.55
2023-03-26T14:48:50.746Z,1.30
2023-03-26T14:51:33.867Z,1.35
2023-03-26T14:54:05.606Z,1.73
2023-03-26T14:56:48.231Z,1.33
2023-03-26T14:59:52.852Z,1.13
2023-03-26T15:03:02.177Z,1.30
2023-03-26T15:06:04.013Z,1.27
2023-03-26T15:09:09.071Z,1.50
2023-03-26T15:11:47.854Z,1.10
2023-03-26T15:14:40.716Z,1.40
2023-03-26T15:17:40.466Z,1.33
2023-03-26T15:20:49.005Z,1.50
2023-03-26T15:23:52.593Z,1.48
2023-03-26T15:27:08.969Z,1.10
2023-03-26T15:30:19.078Z,2.35
2023-03-26T15:33:24.784Z,2.23
2023-03-26T15:36:28.216Z,1.50
2023-03-26T15:39:28.108Z,1.30
2023-03-26T15:42:03.939Z,1.33
2023-03-26T15:44:54.075Z,1.75
2023-03-26T15:47:49.717Z,1.40
2023-03-26T15:50:38.608Z,1.40
2023-03-26T15:53:18.588Z,1.30
2023-03-26T15:56:00.573Z,1.30
2023-03-26T15:58:35.608Z,1.40
2023-03-26T16:01:18.880Z,1.23
2023-03-26T16:03:54.335Z,1.30
2023-03-26T16:06:31.123Z,1.30
2023-03-26T16:09:12.607Z,1.40
2023-03-26T16:11:54.796Z,1.50
2023-03-26T16:14:38.226Z,1.50
2023-03-26T16:17:11.816Z,1.20
2023-03-26T16:19:52.066Z,1.40
2023-03-26T16:22:53.677Z,1.40
2023-03-26T16:25:30.343Z,1.30
2023-03-26T16:28:19.612Z,1.30
2023-03-26T16:31:37.759Z,1.40
2023-03-26T16:34:27.583Z,1.10
2023-03-26T16:36:58.425Z,1.25
2023-03-26T16:39:39.170Z,1.25
2023-03-26T16:42:37.760Z,2.00
2023-03-26T16:45:21.786Z,1.70
2023-03-26T16:47:59.117Z,1.30
2023-03-26T16:50:36.979Z,1.10
2023-03-26T16:53:15.646Z,1.17
2023-03-26T16:55:47.922Z,1.33
2023-03-26T16:58:23.293Z,1.30
2023-03-26T17:01:04.090Z,1.40
2023-03-26T17:03:41.097Z,1.38
2023-03-26T17:06:30.663Z,1.20
2023-03-26T17:09:05.038Z,1.40
2023-03-26T17:11:45.853Z,1.33
2023-03-26T17:14:27.774Z,1.38
2023-03-26T17:17:16.734Z,1.50
2023-03-26T17:19:53.717Z,1.60
2023-03-26T17:22:35.943Z,1.30
2023-03-26T17:25:24.301Z,1.20
2023-03-26T17:28:15.886Z,1.30
2023-03-26T17:30:56.733Z,1.30
2023-03-26T17:33:29.512Z,2.42
2023-03-26T17:36:30.697Z,1.90
2023-03-26T17:39:19.512Z,1.90
2023-03-26T17:42:18.758Z,2.38
2023-03-26T17:44:50.452Z,2.92
2023-03-26T17:47:28.371Z,2.35
2023-03-26T17:50:00.748Z,1.57
2023-03-26T17:52:40.864Z,2.33
2023-03-26T17:55:13.233Z,2.45
2023-03-26T17:57:43.292Z,4.45
2023-03-26T18:00:18.281Z,4.75
2023-03-26T18:02:51.582Z,2.40
2023-03-26T18:05:19.469Z,2.65
2023-03-26T18:08:39.259Z,2.72
2023-03-26T18:11:23.734Z,4.70
2023-03-26T18:14:17.618Z,4.20
2023-03-26T18:16:47.416Z,2.70
2023-03-26T18:19:19.168Z,2.97
2023-03-26T18:21:50.166Z,2.50
2023-03-26T18:24:20.972Z,2.40
2023-03-26T18:26:53.937Z,3.08
2023-03-26T18:29:26.042Z,2.50
2023-03-26T18:31:55.715Z,2.10
2023-03-26T18:34:25.900Z,1.98
2023-03-26T18:37:15.620Z,2.20
2023-03-26T18:39:56.668Z,2.50
2023-03-26T18:42:26.991Z,1.90
2023-03-26T18:44:57.231Z,2.05
2023-03-26T18:47:30.510Z,3.00
2023-03-26T18:49:59.086Z,3.08
2023-03-26T18:52:29.450Z,2.00
2023-03-26T18:54:59.042Z,2.10
2023-03-26T18:57:29.396Z,2.15
2023-03-26T19:00:09.988Z,2.65
2023-03-26T19:02:38.965Z,3.15
2023-03-26T19:05:07.615Z,2.22
2023-03-26T19:07:35.883Z,2.00
2023-03-26T19:10:03.557Z,2.13
2023-03-26T19:12:33.997Z,2.30
2023-03-26T19:15:07.796Z,2.20
2023-03-26T19:17:39.598Z,3.15
2023-03-26T19:20:13.778Z,2.03
2023-03-26T19:22:42.354Z,2.50
2023-03-26T19:25:19.594Z,2.08
2023-03-26T19:27:49.159Z,2.05
2023-03-26T19:30:29.478Z,1.85
2023-03-26T19:33:11.886Z,1.90
2023-03-26T19:35:42.870Z,2.03
2023-03-26T19:38:20.736Z,2.10
2023-03-26T19:40:49.141Z,2.10
2023-03-26T19:43:18.422Z,2.10
2023-03-26T19:46:00.181Z,1.80
2023-03-26T19:48:45.460Z,1.88
2023-03-26T19:51:22.623Z,1.88
2023-03-26T19:53:55.026Z,1.67
2023-03-26T19:56:22.838Z,1.98
2023-03-26T19:58:51.649Z,2.30
2023-03-26T20:01:21.057Z,1.92
2023-03-26T20:03:50.664Z,2.20
2023-03-26T20:06:22.143Z,2.40
2023-03-26T20:08:53.206Z,2.13
2023-03-26T20:11:22.576Z,2.20
2023-03-26T20:13:52.309Z,2.50
2023-03-26T20:16:24.418Z,1.90
2023-03-26T20:18:51.726Z,2.25
2023-03-26T20:21:19.182Z,1.98
2023-03-26T20:23:46.514Z,2.57
2023-03-26T20:26:15.089Z,2.00
2023-03-26T20:28:48.421Z,2.58
2023-03-26T20:31:25.021Z,2.42
2023-03-26T20:33:54.225Z,2.13
2023-03-26T20:36:33.201Z,2.50
2023-03-26T20:39:02.262Z,2.22
2023-03-26T20:41:29.534Z,1.67
2023-03-26T20:43:56.951Z,1.73
2023-03-26T20:46:31.188Z,1.90
2023-03-26T20:48:59.585Z,2.10
2023-03-26T20:51:28.622Z,1.75
2023-03-26T20:53:56.549Z,2.00
2023-03-26T20:56:24.223Z,1.75
2023-03-26T20:59:07.855Z,1.83
2023-03-26T21:01:37.667Z,2.03
2023-03-26T21:04:05.367Z,1.60
2023-03-26T21:06:32.733Z,1.92
2023-03-26T21:09:00.547Z,2.03
2023-03-26T21:11:40.902Z,1.90
2023-03-26T21:14:15.036Z,1.70
2023-03-26T21:16:44.426Z,1.80
2023-03-26T21:19:12.360Z,1.50
2023-03-26T21:21:52.496Z,1.88
2023-03-26T21:24:29.616Z,1.98
2023-03-26T21:27:06.035Z,2.20
2023-03-26T21:29:33.938Z,1.85
2023-03-26T21:32:07.242Z,1.67
2023-03-26T21:34:35.132Z,2.05
2023-03-26T21:37:04.125Z,1.95
2023-03-26T21:39:31.918Z,1.70
2023-03-26T21:42:05.276Z,1.80
2023-03-26T21:44:35.009Z,2.20
2023-03-26T21:47:05.270Z,2.00
2023-03-26T21:49:34.867Z,1.60
2023-03-26T21:52:07.304Z,2.10
2023-03-26T21:54:35.437Z,2.03
2023-03-26T21:57:16.112Z,1.98
2023-03-26T21:59:50.027Z,1.75
2023-03-26T22:02:27.682Z,1.70
2023-03-26T22:04:59.423Z,1.70
2023-03-26T22:07:34.347Z,1.88
2023-03-26T22:10:01.866Z,1.60
2023-03-26T22:12:29.529Z,1.83
2023-03-26T22:14:57.438Z,2.20
2023-03-26T22:17:27.527Z,1.97
2023-03-26T22:19:56.189Z,1.73
2023-03-26T22:22:26.205Z,1.65
2023-03-26T22:24:53.688Z,2.45
2023-03-26T22:27:20.915Z,2.15
2023-03-26T22:29:48.185Z,1.73
2023-03-26T22:32:15.558Z,1.90
2023-03-26T22:34:44.909Z,1.90
2023-03-26T22:37:12.203Z,1.90
2023-03-26T22:39:40.232Z,1.58
2023-03-26T22:42:09.792Z,1.90
2023-03-26T22:44:37.386Z,1.75
2023-03-26T22:47:06.396Z,1.90
2023-03-26T22:49:33.729Z,1.98
2023-03-26T22:52:02.384Z,1.55
2023-03-26T22:54:29.785Z,1.60
2023-03-26T22:56:57.271Z,1.77
2023-03-26T22:59:26.370Z,1.25
2023-03-26T23:01:54.272Z,1.73
2023-03-26T23:04:31.378Z,1.60
2023-03-26T23:06:59.775Z,1.73
2023-03-26T23:09:29.364Z,1.67
2023-03-26T23:11:56.700Z,1.40
2023-03-26T23:14:27.199Z,1.60
2023-03-26T23:16:55.001Z,1.55
2023-03-26T23:19:22.399Z,1.80
2023-03-26T23:21:49.777Z,1.70
2023-03-26T23:24:17.303Z,1.63
2023-03-26T23:26:50.740Z,1.35
2023-03-26T23:29:18.916Z,1.50
2023-03-26T23:31:46.366Z,1.23
2023-03-26T23:34:14.225Z,1.50
2023-03-26T23:36:42.286Z,1.45
2023-03-26T23:39:10.831Z,1.23
2023-03-26T23:41:38.223Z,1.50
2023-03-26T23:44:07.010Z,1.17
2023-03-26T23:46:34.675Z,1.30
2023-03-26T23:49:03.464Z,1.35
2023-03-26T23:51:31.704Z,1.20
2023-03-26T23:53:59.844Z,1.50
2023-03-26T23:56:27.725Z,1.10
2023-03-26T23:58:55.226Z,1.20
